createdAt,value
2022-10-16T00:01:15.823Z,8.80
2022-10-16T00:06:13.947Z,6.70
2022-10-16T00:11:16.431Z,5.80
2022-10-16T00:16:13.677Z,2.90
2022-10-16T00:21:15.785Z,4.90
2022-10-16T00:26:16.146Z,5.40
2022-10-16T00:31:13.005Z,5.00
2022-10-16T00:36:16.035Z,10.00
2022-10-16T00:41:16.927Z,27.30
2022-10-16T00:46:18.584Z,23.20
2022-10-16T00:51:13.802Z,10.70
2022-10-16T00:56:12.724Z,6.90
2022-10-16T01:01:13.560Z,19.60
2022-10-16T01:06:28.516Z,16.20
2022-10-16T01:11:26.181Z,15.60
2022-10-16T01:16:23.200Z,21.30
2022-10-16T01:21:24.358Z,23.80
2022-10-16T01:26:13.778Z,23.80
2022-10-16T01:31:15.845Z,26.60
2022-10-16T01:36:19.803Z,13.20
2022-10-16T01:41:21.812Z,13.10
2022-10-16T01:46:17.356Z,26.20
2022-10-16T01:51:15.748Z,14.90
2022-10-16T01:56:15.401Z,27.10
2022-10-16T02:01:17.643Z,28.90
2022-10-16T02:06:12.951Z,18.70
2022-10-16T02:11:12.831Z,3.50
2022-10-16T02:16:14.193Z,6.70
2022-10-16T02:21:20.324Z,33.60
2022-10-16T02:26:18.779Z,33.30
2022-10-16T02:31:18.092Z,18.20
2022-10-16T02:36:13.277Z,27.00
2022-10-16T02:41:14.038Z,28.80
2022-10-16T02:46:12.995Z,6.30
2022-10-16T02:51:12.949Z,12.00
2022-10-16T02:56:13.012Z,19.20
2022-10-16T03:01:13.647Z,33.00
2022-10-16T03:06:13.019Z,17.10
2022-10-16T03:11:13.012Z,21.00
2022-10-16T03:16:12.978Z,20.50
2022-10-16T03:21:13.005Z,29.10
2022-10-16T03:26:13.023Z,31.60
2022-10-16T03:31:13.009Z,21.60
2022-10-16T03:36:13.060Z,16.90
2022-10-16T03:41:13.248Z,4.50
2022-10-16T03:46:13.044Z,3.70
2022-10-16T03:51:13.076Z,3.90
2022-10-16T03:56:13.097Z,8.20
2022-10-16T04:01:14.459Z,4.50
2022-10-16T04:06:13.107Z,7.70
2022-10-16T04:11:13.109Z,5.20
2022-10-16T04:16:13.164Z,12.80
2022-10-16T04:21:13.178Z,20.60
2022-10-16T04:26:13.170Z,26.60
2022-10-16T04:31:13.454Z,27.80
2022-10-16T04:36:13.417Z,26.30
2022-10-16T04:41:13.175Z,21.60
2022-10-16T04:46:13.195Z,24.00
2022-10-16T04:51:13.220Z,12.70
2022-10-16T04:56:13.221Z,15.10
2022-10-16T05:01:14.022Z,16.70
2022-10-16T05:06:13.236Z,32.70
2022-10-16T05:11:13.294Z,5.60
2022-10-16T05:16:13.266Z,4.30
2022-10-16T05:21:13.263Z,2.60
2022-10-16T05:26:13.599Z,3.00
2022-10-16T05:31:13.327Z,4.80
2022-10-16T05:36:13.438Z,4.40
2022-10-16T05:41:13.301Z,8.00
2022-10-16T05:46:14.071Z,8.30
2022-10-16T05:51:14.476Z,9.40
2022-10-16T05:56:13.933Z,23.90
2022-10-16T06:01:17.810Z,26.70
2022-10-16T06:06:16.803Z,17.00
2022-10-16T06:11:16.066Z,41.70
2022-10-16T06:16:13.436Z,38.70
2022-10-16T06:21:17.526Z,27.80
2022-10-16T06:26:21.548Z,22.00
2022-10-16T06:31:13.973Z,26.00
2022-10-16T06:36:16.878Z,12.40
2022-10-16T06:41:16.967Z,7.10
2022-10-16T06:46:16.044Z,19.50
2022-10-16T06:51:15.703Z,23.80
2022-10-16T06:56:18.385Z,22.20
2022-10-16T07:01:16.050Z,12.80
2022-10-16T07:06:17.060Z,20.20
2022-10-16T07:11:15.877Z,3.90
2022-10-16T07:16:15.788Z,8.00
2022-10-16T07:21:15.948Z,9.80
2022-10-16T07:26:13.522Z,6.60
2022-10-16T07:31:15.406Z,6.00
2022-10-16T07:36:16.175Z,7.30
2022-10-16T07:41:16.733Z,8.40
2022-10-16T07:46:13.620Z,7.10
2022-10-16T07:51:16.058Z,22.50
2022-10-16T07:56:14.244Z,15.60
2022-10-16T08:01:16.613Z,4.60
2022-10-16T08:06:14.012Z,8.00
2022-10-16T08:11:13.700Z,5.60
2022-10-16T08:16:13.689Z,3.50
2022-10-16T08:21:20.299Z,3.20
2022-10-16T08:26:13.698Z,2.60
2022-10-16T08:31:15.272Z,2.70
2022-10-16T08:36:14.802Z,3.90
2022-10-16T08:41:22.784Z,3.60
2022-10-16T08:46:26.950Z,4.20
2022-10-16T08:51:25.553Z,3.60
2022-10-16T08:56:13.770Z,4.50
2022-10-16T09:01:16.965Z,5.00
2022-10-16T09:06:31.121Z,3.20
2022-10-16T09:11:25.969Z,3.20
2022-10-16T09:16:28.057Z,4.10
2022-10-16T09:21:19.709Z,3.20
2022-10-16T09:26:15.839Z,3.20
2022-10-16T09:31:18.246Z,3.00
2022-10-16T09:36:13.984Z,5.70
2022-10-16T09:41:19.028Z,4.90
2022-10-16T09:46:24.237Z,6.30
2022-10-16T09:51:19.833Z,7.20
2022-10-16T09:56:25.305Z,5.60
2022-10-16T10:01:15.044Z,6.10
2022-10-16T10:06:24.210Z,4.50
2022-10-16T10:11:16.146Z,6.80
2022-10-16T10:16:23.233Z,5.40
2022-10-16T10:21:15.346Z,7.50
2022-10-16T10:26:20.760Z,7.60
2022-10-16T10:31:15.002Z,6.40
2022-10-16T10:36:31.161Z,5.50
2022-10-16T10:41:26.682Z,6.10
2022-10-16T10:46:31.468Z,5.70
2022-10-16T10:51:23.959Z,6.70
2022-10-16T10:56:24.844Z,8.10
2022-10-16T11:01:18.876Z,6.40
2022-10-16T11:06:20.061Z,5.70
2022-10-16T11:11:20.500Z,6.20
2022-10-16T11:16:21.594Z,6.00
2022-10-16T11:21:18.177Z,6.70
2022-10-16T11:26:23.155Z,4.10
2022-10-16T11:31:34.025Z,7.00
2022-10-16T11:36:34.009Z,7.10
2022-10-16T11:41:24.132Z,7.60
2022-10-16T11:46:19.021Z,4.40
2022-10-16T11:51:31.315Z,6.10
2022-10-16T11:56:18.642Z,8.00
2022-10-16T12:01:20.920Z,5.50
2022-10-16T12:06:31.636Z,8.40
2022-10-16T12:11:34.091Z,9.70
2022-10-16T12:16:14.198Z,6.70
2022-10-16T12:21:16.309Z,8.40
2022-10-16T12:26:23.571Z,5.60
2022-10-16T12:31:14.309Z,5.30
2022-10-16T12:36:26.036Z,6.50
2022-10-16T12:41:24.543Z,7.80
2022-10-16T12:46:14.236Z,5.20
2022-10-16T12:51:33.627Z,4.50
2022-10-16T12:56:28.188Z,7.60
2022-10-16T13:01:34.232Z,6.10
2022-10-16T13:06:24.265Z,7.40
2022-10-16T13:11:23.466Z,5.90
2022-10-16T13:16:27.945Z,6.50
2022-10-16T13:21:29.868Z,5.60
2022-10-16T13:26:22.956Z,5.50
2022-10-16T13:31:21.041Z,5.20
2022-10-16T13:36:20.955Z,6.10
2022-10-16T13:41:17.746Z,7.40
2022-10-16T13:46:17.180Z,5.80
2022-10-16T13:51:17.919Z,5.80
2022-10-16T13:56:16.948Z,8.60
2022-10-16T14:01:20.063Z,9.90
2022-10-16T14:06:17.107Z,7.50
2022-10-16T14:11:22.156Z,5.40
2022-10-16T14:16:19.177Z,13.50
2022-10-16T14:21:16.157Z,8.50
2022-10-16T14:26:18.015Z,7.60
2022-10-16T14:31:26.918Z,4.80
2022-10-16T14:36:16.028Z,6.70
2022-10-16T14:41:15.077Z,6.50
2022-10-16T14:46:18.799Z,8.40
2022-10-16T14:51:15.612Z,5.40
2022-10-16T14:56:19.136Z,6.50
2022-10-16T15:01:16.161Z,6.90
2022-10-16T15:06:15.863Z,4.70
2022-10-16T15:11:17.173Z,7.20
2022-10-16T15:16:15.977Z,9.10
2022-10-16T15:21:24.073Z,6.40
2022-10-16T15:26:14.647Z,5.50
2022-10-16T15:31:14.733Z,6.60
2022-10-16T15:36:14.657Z,7.30
2022-10-16T15:41:14.674Z,7.70
2022-10-16T15:46:16.901Z,5.70
2022-10-16T15:51:15.132Z,5.20
2022-10-16T15:56:14.708Z,5.90
2022-10-16T16:01:15.379Z,6.70
2022-10-16T16:06:14.793Z,7.50
2022-10-16T16:11:16.205Z,11.20
2022-10-16T16:16:16.358Z,9.70
2022-10-16T16:21:15.066Z,8.20
2022-10-16T16:26:24.020Z,8.60
2022-10-16T16:31:14.806Z,9.60
2022-10-16T16:36:16.056Z,8.00
2022-10-16T16:41:21.045Z,6.60
2022-10-16T16:46:15.081Z,7.50
2022-10-16T16:51:16.384Z,8.20
2022-10-16T16:56:15.376Z,6.60
2022-10-16T17:01:19.719Z,7.40
2022-10-16T17:06:15.315Z,9.00
2022-10-16T17:11:18.572Z,10.20
2022-10-16T17:16:15.763Z,13.20
2022-10-16T17:21:15.418Z,15.60
2022-10-16T17:26:16.298Z,10.80
2022-10-16T17:31:18.133Z,9.40
2022-10-16T17:36:14.907Z,9.70
2022-10-16T17:41:23.770Z,8.80
2022-10-16T17:46:17.074Z,7.70
2022-10-16T17:51:17.921Z,9.60
2022-10-16T17:56:15.038Z,11.20
2022-10-16T18:01:18.390Z,9.50
2022-10-16T18:06:16.897Z,9.50
2022-10-16T18:11:14.995Z,7.80
2022-10-16T18:16:15.096Z,7.30
2022-10-16T18:21:17.934Z,6.30
2022-10-16T18:26:15.646Z,7.30
2022-10-16T18:31:16.181Z,10.20
2022-10-16T18:36:17.889Z,12.30
2022-10-16T18:41:15.540Z,10.50
2022-10-16T18:46:17.694Z,9.40
2022-10-16T18:51:18.332Z,8.60
2022-10-16T18:56:16.537Z,8.10
2022-10-16T19:01:18.483Z,8.60
2022-10-16T19:06:15.903Z,7.20
2022-10-16T19:11:18.271Z,7.40
2022-10-16T19:16:20.731Z,7.10
2022-10-16T19:21:15.674Z,12.00
2022-10-16T19:26:17.367Z,12.70
2022-10-16T19:31:18.554Z,12.40
2022-10-16T19:36:19.823Z,7.00
2022-10-16T19:41:17.415Z,8.30
2022-10-16T19:46:18.401Z,7.30
2022-10-16T19:51:17.660Z,5.20
2022-10-16T19:56:18.099Z,4.20
2022-10-16T20:01:17.502Z,8.10
2022-10-16T20:06:17.493Z,6.50
2022-10-16T20:11:17.250Z,6.30
2022-10-16T20:16:15.999Z,7.20
2022-10-16T20:21:17.086Z,4.30
2022-10-16T20:26:17.151Z,5.70
2022-10-16T20:31:18.533Z,8.40
2022-10-16T20:36:18.818Z,6.40
2022-10-16T20:41:16.600Z,5.10
2022-10-16T20:46:18.157Z,5.30
2022-10-16T20:51:17.811Z,5.50
2022-10-16T21:01:19.403Z,6.60
2022-10-16T21:06:15.416Z,4.50
2022-10-16T21:11:18.423Z,3.90
2022-10-16T21:16:16.743Z,3.80
2022-10-16T21:21:26.609Z,4.20
2022-10-16T21:26:16.524Z,4.90
2022-10-16T21:31:18.113Z,4.50
2022-10-16T21:36:19.951Z,5.60
2022-10-16T21:41:18.854Z,4.40
2022-10-16T21:46:17.710Z,5.40
2022-10-16T21:51:15.505Z,4.30
2022-10-16T21:56:17.040Z,3.90
2022-10-16T22:01:20.166Z,4.00
2022-10-16T22:06:18.591Z,3.00
2022-10-16T22:11:22.084Z,5.20
2022-10-16T22:16:19.221Z,4.50
2022-10-16T22:21:15.539Z,3.80
2022-10-16T22:26:15.756Z,4.70
2022-10-16T22:31:15.970Z,5.20
2022-10-16T22:36:15.590Z,4.70
2022-10-16T22:41:16.080Z,4.70
2022-10-16T22:46:19.913Z,5.80
2022-10-16T22:51:17.144Z,6.40
2022-10-16T22:56:18.414Z,3.60
2022-10-16T23:01:27.357Z,4.60
2022-10-16T23:06:15.648Z,4.70
2022-10-16T23:11:15.687Z,4.50
2022-10-16T23:16:17.564Z,4.60
2022-10-16T23:21:19.182Z,5.20
2022-10-16T23:26:18.326Z,5.70
2022-10-16T23:31:16.761Z,6.10
2022-10-16T23:36:18.350Z,7.20
2022-10-16T23:41:17.116Z,6.20
2022-10-16T23:46:15.996Z,4.90
2022-10-16T23:51:16.049Z,5.20
2022-10-16T23:56:15.750Z,5.40
